Time,TemperatureF,DewpointF,PressureIn,WindDirection,WindDirectionDegrees,WindSpeedMPH,WindSpeedGustMPH,Humidity,HourlyPrecipIn,Conditions,Clouds,dailyrainin,SoftwareType,DateUTC
2013-08-28 00:02:00,73.2,72.6,29.94,NNE,22,1.7,-999.0,98,-99.99,,,0.00,Acu-Link.com,2013-08-28 05:02:00,
2013-08-28 00:17:00,72.5,71.9,29.94,NNW,337,0.0,-999.0,98,-99.99,,,0.00,Acu-Link.com,2013-08-28 05:17:00,
2013-08-28 00:33:00,72.3,71.7,29.94,NNW,337,0.0,-999.0,98,-99.99,,,0.00,Acu-Link.com,2013-08-28 05:33:00,
2013-08-28 00:48:00,71.8,71.2,29.95,NNE,22,2.2,-999.0,98,-99.99,,,0.00,Acu-Link.com,2013-08-28 05:48:00,
2013-08-28 01:03:00,71.8,71.2,29.95,NNE,22,0.0,-999.0,98,-99.99,,,0.00,Acu-Link.com,2013-08-28 06:03:00,
2013-08-28 01:18:00,71.6,71.0,29.95,West,270,0.0,-999.0,98,-99.99,,,0.00,Acu-Link.com,2013-08-28 06:18:00,
2013-08-28 01:34:00,71.1,70.5,29.94,West,270,0.0,-999.0,98,-99.99,,,0.00,Acu-Link.com,2013-08-28 06:34:00,
2013-08-28 01:49:00,71.2,70.6,29.94,South,180,0.0,-999.0,98,-99.99,,,0.00,Acu-Link.com,2013-08-28 06:49:00,
2013-08-28 02:04:00,71.1,70.5,29.94,West,270,0.0,-999.0,98,-99.99,,,0.00,Acu-Link.com,2013-08-28 07:04:00,
2013-08-28 02:19:00,70.3,69.7,29.95,NNW,337,0.0,-999.0,98,-99.99,,,0.00,Acu-Link.com,2013-08-28 07:19:00,
2013-08-28 02:34:00,69.8,69.2,29.95,East,90,0.0,-999.0,98,-99.99,,,0.00,Acu-Link.com,2013-08-28 07:34:00,
2013-08-28 02:50:00,70.0,69.4,29.94,NNW,337,0.0,-999.0,98,-99.99,,,0.00,Acu-Link.com,2013-08-28 07:50:00,
2013-08-28 03:06:00,69.6,69.0,29.95,NNW,337,0.0,-999.0,98,-99.99,,,0.00,Acu-Link.com,2013-08-28 08:06:00,
2013-08-28 03:21:00,69.6,69.0,29.95,NNW,337,0.0,-999.0,98,-99.99,,,0.00,Acu-Link.com,2013-08-28 08:21:00,
2013-08-28 03:36:00,70.2,69.6,29.95,NNE,22,3.2,-999.0,98,-99.99,,,0.00,Acu-Link.com,2013-08-28 08:36:00,
2013-08-28 03:51:00,70.2,69.6,29.96,North,0,1.7,-999.0,98,-99.99,,,0.00,Acu-Link.com,2013-08-28 08:51:00,
2013-08-28 04:06:00,70.0,69.4,29.94,NNE,22,0.0,-999.0,98,-99.99,,,0.00,Acu-Link.com,2013-08-28 09:06:00,
2013-08-28 04:21:00,69.6,69.0,29.95,WSW,247,0.0,-999.0,98,-99.99,,,0.00,Acu-Link.com,2013-08-28 09:21:00,
2013-08-28 04:36:00,69.4,68.8,29.96,NNW,337,0.0,-999.0,98,-99.99,,,0.00,Acu-Link.com,2013-08-28 09:36:00,
2013-08-28 04:51:00,68.7,68.1,29.96,NE,45,2.7,-999.0,98,-99.99,,,0.00,Acu-Link.com,2013-08-28 09:51:00,
2013-08-28 05:07:00,68.9,68.3,29.96,NNE,22,2.2,-999.0,98,-99.99,,,0.00,Acu-Link.com,2013-08-28 10:07:00,
2013-08-28 05:22:00,68.5,67.9,29.97,NW,315,1.7,-999.0,98,-99.99,,,0.00,Acu-Link.com,2013-08-28 10:22:00,
2013-08-28 05:37:00,68.7,68.1,29.97,NW,315,0.0,-999.0,98,-99.99,,,0.00,Acu-Link.com,2013-08-28 10:37:00,
2013-08-28 05:53:00,68.5,67.9,29.97,NNW,337,0.0,-999.0,98,-99.99,,,0.00,Acu-Link.com,2013-08-28 10:53:00,
2013-08-28 06:08:00,68.2,67.6,29.97,North,0,1.7,-999.0,98,-99.99,,,0.00,Acu-Link.com,2013-08-28 11:08:00,
2013-08-28 06:23:00,67.5,66.9,29.97,West,270,0.0,-999.0,98,-99.99,,,0.00,Acu-Link.com,2013-08-28 11:23:00,
2013-08-28 06:38:00,67.6,67.0,29.98,NNW,337,0.0,-999.0,98,-99.99,,,0.00,Acu-Link.com,2013-08-28 11:38:00,
2013-08-28 06:54:00,68.0,67.4,29.99,NE,45,1.7,-999.0,98,-99.99,,,0.00,Acu-Link.com,2013-08-28 11:54:00,
2013-08-28 07:09:00,68.5,67.9,29.99,NNW,337,0.0,-999.0,98,-99.99,,,0.00,Acu-Link.com,2013-08-28 12:09:00,
2013-08-28 07:24:00,69.4,68.8,29.99,North,0,2.2,-999.0,98,-99.99,,,0.00,Acu-Link.com,2013-08-28 12:24:00,
2013-08-28 07:39:00,69.8,69.2,29.99,ENE,67,2.2,-999.0,98,-99.99,,,0.00,Acu-Link.com,2013-08-28 12:39:00,
2013-08-28 07:55:00,70.0,69.4,30.00,NNE,22,1.1,-999.0,98,-99.99,,,0.00,Acu-Link.com,2013-08-28 12:55:00,
2013-08-28 08:10:00,71.1,70.5,30.00,ESE,112,2.7,-999.0,98,-99.99,,,0.00,Acu-Link.com,2013-08-28 13:10:00,
2013-08-28 08:25:00,73.0,72.4,30.00,SSE,157,1.7,-999.0,98,-99.99,,,0.00,Acu-Link.com,2013-08-28 13:25:00,
2013-08-28 08:41:00,76.3,75.7,30.01,ENE,67,4.2,-999.0,98,-99.99,,,0.00,Acu-Link.com,2013-08-28 13:41:00,
2013-08-28 08:56:00,76.5,75.9,30.01,NNE,22,3.2,-999.0,98,-99.99,,,0.00,Acu-Link.com,2013-08-28 13:56:00,
2013-08-28 09:11:00,77.5,76.3,30.02,NNE,22,4.7,-999.0,96,-99.99,,,0.00,Acu-Link.com,2013-08-28 14:11:00,
2013-08-28 09:26:00,79.2,77.0,30.02,NE,45,0.0,-999.0,93,-99.99,,,0.00,Acu-Link.com,2013-08-28 14:26:00,
2013-08-28 09:42:00,80.8,77.9,30.02,NE,45,2.7,-999.0,91,-99.99,,,0.00,Acu-Link.com,2013-08-28 14:42:00,
2013-08-28 09:57:00,81.5,77.9,30.02,East,90,3.2,-999.0,89,-99.99,,,0.00,Acu-Link.com,2013-08-28 14:57:00,
2013-08-28 10:12:00,82.4,78.1,30.02,East,90,3.7,-999.0,87,-99.99,,,0.00,Acu-Link.com,2013-08-28 15:12:00,
2013-08-28 10:28:00,83.1,78.5,30.02,SSE,157,3.2,-999.0,86,-99.99,,,0.00,Acu-Link.com,2013-08-28 15:28:00,
2013-08-28 10:43:00,83.8,78.8,30.02,South,180,3.7,-999.0,85,-99.99,,,0.00,Acu-Link.com,2013-08-28 15:43:00,
2013-08-28 10:58:00,84.0,79.0,30.02,South,180,6.3,-999.0,85,-99.99,,,0.00,Acu-Link.com,2013-08-28 15:58:00,
2013-08-28 11:13:00,84.6,78.8,30.03,ESE,112,6.8,-999.0,83,-99.99,,,0.00,Acu-Link.com,2013-08-28 16:13:00,
2013-08-28 11:29:00,85.8,79.6,30.03,SSE,157,4.7,-999.0,82,-99.99,,,0.00,Acu-Link.com,2013-08-28 16:29:00,
2013-08-28 11:44:00,86.0,79.5,30.02,East,90,5.8,-999.0,81,-99.99,,,0.00,Acu-Link.com,2013-08-28 16:44:00,
2013-08-28 11:59:00,86.0,79.5,30.02,NE,45,3.7,-999.0,81,-99.99,,,0.00,Acu-Link.com,2013-08-28 16:59:00,
2013-08-28 12:14:00,86.5,78.8,30.03,NE,45,3.7,-999.0,78,-99.99,,,0.00,Acu-Link.com,2013-08-28 17:14:00,
2013-08-28 12:29:00,87.6,78.7,30.03,SSE,157,4.2,-999.0,75,-99.99,,,0.00,Acu-Link.com,2013-08-28 17:29:00,
2013-08-28 12:44:00,88.2,79.2,30.03,NE,45,4.2,-999.0,75,-99.99,,,0.00,Acu-Link.com,2013-08-28 17:44:00,
2013-08-28 12:59:00,88.5,78.7,30.02,SSW,202,4.2,-999.0,73,-99.99,,,0.00,Acu-Link.com,2013-08-28 17:59:00,
2013-08-28 13:14:00,86.9,76.8,30.02,ESE,112,4.2,-999.0,72,-99.99,,,0.00,Acu-Link.com,2013-08-28 18:14:00,
2013-08-28 13:29:00,87.3,77.1,30.03,ENE,67,1.1,-999.0,72,-99.99,,,0.00,Acu-Link.com,2013-08-28 18:29:00,
2013-08-28 13:45:00,87.1,76.5,30.03,SSE,157,2.2,-999.0,71,-99.99,,,0.00,Acu-Link.com,2013-08-28 18:45:00,
2013-08-28 14:00:00,87.6,77.8,30.01,ESE,112,2.7,-999.0,73,-99.99,,,0.00,Acu-Link.com,2013-08-28 19:00:00,
2013-08-28 14:15:00,88.0,77.4,30.01,ESE,112,3.7,-999.0,71,-99.99,,,0.00,Acu-Link.com,2013-08-28 19:15:00,
2013-08-28 14:31:00,87.4,78.1,30.02,SSE,157,3.2,-999.0,74,-99.99,,,0.00,Acu-Link.com,2013-08-28 19:31:00,
2013-08-28 14:46:00,87.8,78.0,30.01,NE,45,4.2,-999.0,73,-99.99,,,0.00,Acu-Link.com,2013-08-28 19:46:00,
2013-08-28 15:01:00,86.7,78.6,30.00,NE,45,5.3,-999.0,77,-99.99,,,0.00,Acu-Link.com,2013-08-28 20:01:00,
2013-08-28 15:16:00,85.8,77.7,30.00,ENE,67,3.2,-999.0,77,-99.99,,,0.00,Acu-Link.com,2013-08-28 20:16:00,
2013-08-28 15:31:00,84.9,76.9,29.99,ENE,67,4.2,-999.0,77,-99.99,,,0.00,Acu-Link.com,2013-08-28 20:31:00,
2013-08-28 15:47:00,84.2,77.3,29.99,SSE,157,2.2,-999.0,80,-99.99,,,0.00,Acu-Link.com,2013-08-28 20:47:00,
2013-08-28 16:02:00,84.0,77.5,29.98,SSE,157,2.7,-999.0,81,-99.99,,,0.00,Acu-Link.com,2013-08-28 21:02:00,
2013-08-28 16:17:00,83.3,77.2,29.98,ESE,112,2.2,-999.0,82,-99.99,,,0.00,Acu-Link.com,2013-08-28 21:17:00,
2013-08-28 16:32:00,84.2,78.8,29.99,West,270,0.0,-999.0,84,-99.99,,,0.00,Acu-Link.com,2013-08-28 21:32:00,
2013-08-28 16:47:00,83.7,79.4,30.00,NW,315,0.0,-999.0,87,-99.99,,,0.00,Acu-Link.com,2013-08-28 21:47:00,
2013-08-28 17:03:00,83.1,77.7,29.98,South,180,2.7,-999.0,84,-99.99,,,0.00,Acu-Link.com,2013-08-28 22:03:00,
2013-08-28 17:18:00,83.1,77.4,29.98,SSE,157,2.2,-999.0,83,-99.99,,,0.00,Acu-Link.com,2013-08-28 22:18:00,
2013-08-28 17:33:00,84.6,78.5,29.99,NNE,22,2.7,-999.0,82,-99.99,,,0.00,Acu-Link.com,2013-08-28 22:33:00,
2013-08-28 17:48:00,84.2,78.5,29.99,NNE,22,3.7,-999.0,83,-99.99,,,0.00,Acu-Link.com,2013-08-28 22:48:00,
2013-08-28 18:04:00,84.6,78.5,30.00,NE,45,2.7,-999.0,82,-99.99,,,0.00,Acu-Link.com,2013-08-28 23:04:00,
2013-08-28 18:19:00,84.9,78.4,30.00,ENE,67,0.0,-999.0,81,-99.99,,,0.00,Acu-Link.com,2013-08-28 23:19:00,
2013-08-28 18:34:00,84.9,78.4,30.00,SSE,157,0.0,-999.0,81,-99.99,,,0.00,Acu-Link.com,2013-08-28 23:34:00,
2013-08-28 18:50:00,85.3,79.2,29.99,SE,135,0.0,-999.0,82,-99.99,,,0.00,Acu-Link.com,2013-08-28 23:50:00,
2013-08-28 19:05:00,85.8,78.9,29.99,SE,135,1.7,-999.0,80,-99.99,,,0.00,Acu-Link.com,2013-08-29 00:05:00,
2013-08-28 19:20:00,84.6,78.5,29.99,East,90,0.0,-999.0,82,-99.99,,,0.00,Acu-Link.com,2013-08-29 00:20:00,
2013-08-28 19:35:00,82.4,77.8,29.99,North,0,0.0,-999.0,86,-99.99,,,0.00,Acu-Link.com,2013-08-29 00:35:00,
2013-08-28 19:50:00,80.8,78.3,30.00,ENE,67,0.0,-999.0,92,-99.99,,,0.00,Acu-Link.com,2013-08-29 00:50:00,
2013-08-28 20:06:00,79.2,77.0,30.00,NW,315,0.0,-999.0,93,-99.99,,,0.00,Acu-Link.com,2013-08-29 01:06:00,
2013-08-28 20:21:00,78.1,76.2,30.01,NE,45,1.7,-999.0,94,-99.99,,,0.00,Acu-Link.com,2013-08-29 01:21:00,
2013-08-28 20:36:00,77.5,75.6,30.01,NE,45,0.0,-999.0,94,-99.99,,,0.00,Acu-Link.com,2013-08-29 01:36:00,
2013-08-28 20:51:00,77.4,75.5,30.01,South,180,0.0,-999.0,94,-99.99,,,0.00,Acu-Link.com,2013-08-29 01:51:00,
2013-08-28 21:07:00,77.4,75.5,30.01,South,180,2.2,-999.0,94,-99.99,,,0.00,Acu-Link.com,2013-08-29 02:07:00,
2013-08-28 21:22:00,77.2,75.7,30.01,ESE,112,2.7,-999.0,95,-99.99,,,0.00,Acu-Link.com,2013-08-29 02:22:00,
2013-08-28 21:37:00,76.6,75.1,30.02,ESE,112,2.2,-999.0,95,-99.99,,,0.00,Acu-Link.com,2013-08-29 02:37:00,
2013-08-28 21:53:00,76.5,75.6,30.00,SSE,157,1.1,-999.0,97,-99.99,,,0.00,Acu-Link.com,2013-08-29 02:53:00,
2013-08-28 22:08:00,76.5,75.9,30.01,SE,135,3.7,-999.0,98,-99.99,,,0.00,Acu-Link.com,2013-08-29 03:08:00,
2013-08-28 22:23:00,76.5,75.9,30.02,SSE,157,2.2,-999.0,98,-99.99,,,0.00,Acu-Link.com,2013-08-29 03:23:00,
2013-08-28 22:38:00,76.5,75.9,30.01,SSE,157,2.7,-999.0,98,-99.99,,,0.00,Acu-Link.com,2013-08-29 03:38:00,
2013-08-28 22:54:00,76.5,75.9,30.01,SSE,157,4.2,-999.0,98,-99.99,,,0.00,Acu-Link.com,2013-08-29 03:54:00,
2013-08-28 23:09:00,76.3,75.7,30.02,South,180,2.2,-999.0,98,-99.99,,,0.00,Acu-Link.com,2013-08-29 04:09:00,
2013-08-28 23:24:00,75.7,75.1,30.01,SSE,157,2.7,-999.0,98,-99.99,,,0.00,Acu-Link.com,2013-08-29 04:24:00,
2013-08-28 23:40:00,75.7,75.1,30.01,South,180,1.7,-999.0,98,-99.99,,,0.00,Acu-Link.com,2013-08-29 04:40:00,
2013-08-28 23:55:00,75.7,75.1,30.01,SE,135,2.7,-999.0,98,-99.99,,,0.00,Acu-Link.com,2013-08-29 04:55:00,